Time;durP1;ratioP1;P1;durP2;ratioP2;P2;SDS_P1;SDS_P2;PMS_P1;PMS_P2;Temp;Humidity;BMP_temperature;BMP_pressure;BME280_temperature;BME280_humidity;BME280_pressure;Samples;Min_cycle;Max_cycle;Signal;HPM_P1;HPM_P2
2023/07/09 00:00:49;;;;;;;0.32;0.32;;;22.20;81.70;;;;;;4378328;32;20082;-78
2023/07/09 00:03:15;;;;;;;0.40;0.40;;;22.10;82.30;;;;;;4378676;32;20086;-76
2023/07/09 00:05:42;;;;;;;0.73;0.73;;;22.10;83.00;;;;;;4379397;32;20129;-78
2023/07/09 00:08:28;;;;;;;0.40;0.40;;;22.00;83.50;;;;;;4381896;32;20097;-76
2023/07/09 00:10:56;;;;;;;0.47;0.30;;;21.90;83.50;;;;;;4376221;32;20114;-78
2023/07/09 00:13:23;;;;;;;0.40;0.40;;;21.90;83.00;;;;;;4379975;32;20078;-78
2023/07/09 00:15:50;;;;;;;0.35;0.32;;;21.90;83.40;;;;;;4378467;32;20062;-78
2023/07/09 00:18:16;;;;;;;0.70;0.70;;;21.80;84.00;;;;;;4378894;32;20468;-77
2023/07/09 00:20:43;;;;;;;0.35;0.35;;;21.80;84.50;;;;;;4379937;32;20066;-79
2023/07/09 00:23:09;;;;;;;0.57;0.37;;;21.80;84.40;;;;;;4380834;32;20103;-78
2023/07/09 00:25:35;;;;;;;4.50;1.05;;;21.80;84.40;;;;;;4379549;32;20066;-77
2023/07/09 00:28:01;;;;;;;0.30;0.30;;;21.70;84.50;;;;;;4379920;32;20094;-79
2023/07/09 00:30:27;;;;;;;2.83;0.77;;;21.70;85.00;;;;;;4381198;32;20553;-77
2023/07/09 00:32:54;;;;;;;0.30;0.30;;;21.70;84.70;;;;;;4378388;32;20090;-76
2023/07/09 00:35:19;;;;;;;0.55;0.55;;;21.70;85.50;;;;;;4376697;32;20091;-76
2023/07/09 00:37:45;;;;;;;0.30;0.30;;;21.60;85.40;;;;;;4378379;32;20066;-79
2023/07/09 00:40:22;;;;;;;0.55;0.40;;;21.50;85.90;;;;;;4379204;32;20493;-77
2023/07/09 00:42:49;;;;;;;0.30;0.30;;;21.60;86.60;;;;;;4378395;32;20161;-77
2023/07/09 00:45:21;;;;;;;0.57;0.57;;;21.60;85.50;;;;;;4380376;32;20093;-78
2023/07/09 00:47:55;;;;;;;0.32;0.32;;;21.60;85.80;;;;;;4379925;32;20428;-78
2023/07/09 00:50:47;;;;;;;0.43;0.40;;;21.50;86.50;;;;;;4378027;32;20065;-78
2023/07/09 00:53:32;;;;;;;0.68;0.35;;;21.50;85.30;;;;;;4377878;32;20086;-76
2023/07/09 00:56:03;;;;;;;0.55;0.55;;;21.50;85.20;;;;;;4378213;32;20083;-75
2023/07/09 00:58:30;;;;;;;0.20;0.20;;;21.40;86.20;;;;;;4378624;32;20074;-79
2023/07/09 01:01:02;;;;;;;0.25;0.25;;;21.50;85.70;;;;;;4377974;32;20069;-78
2023/07/09 01:03:42;;;;;;;0.30;0.30;;;21.50;86.00;;;;;;4379359;32;20519;-79
2023/07/09 01:06:08;;;;;;;0.73;0.73;;;21.40;86.30;;;;;;4378420;32;20087;-77
2023/07/09 01:08:37;;;;;;;0.75;0.40;;;21.40;86.30;;;;;;4379139;32;20436;-78
2023/07/09 01:11:02;;;;;;;19.02;0.52;;;21.30;87.00;;;;;;4379611;32;20102;-78
2023/07/09 01:13:32;;;;;;;1.67;0.93;;;21.30;87.50;;;;;;4378047;32;20514;-77
2023/07/09 01:15:57;;;;;;;0.35;0.35;;;21.30;87.50;;;;;;4377333;32;20069;-76
2023/07/09 01:18:24;;;;;;;0.32;0.32;;;21.30;87.00;;;;;;4378834;32;20585;-80
2023/07/09 01:20:52;;;;;;;0.20;0.20;;;21.30;87.60;;;;;;4378275;32;20066;-77
2023/07/09 01:23:18;;;;;;;0.90;0.85;;;21.20;87.60;;;;;;4378953;32;20114;-78
2023/07/09 01:25:52;;;;;;;0.93;0.88;;;21.10;88.10;;;;;;4380703;32;20062;-79
2023/07/09 01:28:18;;;;;;;0.20;0.20;;;21.20;87.70;;;;;;4378486;32;20106;-78
2023/07/09 01:30:44;;;;;;;1.30;0.47;;;21.30;88.00;;;;;;4378785;32;20078;-78
2023/07/09 01:33:10;;;;;;;0.30;0.30;;;21.20;88.40;;;;;;4380049;32;20487;-78
2023/07/09 01:35:40;;;;;;;0.47;0.47;;;21.20;88.20;;;;;;4378342;32;20128;-76
2023/07/09 01:38:06;;;;;;;0.30;0.30;;;21.20;88.30;;;;;;4377250;32;20153;-79
2023/07/09 01:40:32;;;;;;;0.47;0.37;;;21.10;89.50;;;;;;4377305;32;20090;-80
2023/07/09 01:42:59;;;;;;;0.30;0.30;;;21.10;89.10;;;;;;4379549;32;20078;-78
2023/07/09 01:45:25;;;;;;;0.30;0.30;;;21.00;89.00;;;;;;4378831;32;20223;-78
2023/07/09 01:47:53;;;;;;;0.37;0.37;;;21.00;89.00;;;;;;4381117;32;20142;-77
2023/07/09 01:50:19;;;;;;;8.70;1.55;;;20.90;90.00;;;;;;4378595;32;20098;-77
2023/07/09 01:52:46;;;;;;;0.82;0.57;;;20.90;90.20;;;;;;4376810;32;20438;-78
2023/07/09 01:55:16;;;;;;;0.50;0.50;;;20.80;90.30;;;;;;4379708;32;20078;-78
2023/07/09 01:57:42;;;;;;;0.55;0.43;;;20.70;90.10;;;;;;4378108;32;20090;-78
2023/07/09 02:00:13;;;;;;;0.40;0.40;;;20.70;90.60;;;;;;4379469;32;20081;-78
2023/07/09 02:02:38;;;;;;;1.08;0.82;;;20.70;90.80;;;;;;4378276;32;20098;-78
2023/07/09 02:05:05;;;;;;;0.30;0.30;;;20.70;90.80;;;;;;4380824;32;20153;-80
2023/07/09 02:07:31;;;;;;;0.50;0.50;;;20.70;91.00;;;;;;4376634;32;20077;-78
2023/07/09 02:09:58;;;;;;;0.30;0.30;;;20.70;90.90;;;;;;4380840;32;20307;-78
2023/07/09 02:12:24;;;;;;;0.30;0.30;;;20.60;91.10;;;;;;4379555;32;20102;-78
2023/07/09 02:14:50;;;;;;;0.50;0.50;;;20.60;91.20;;;;;;4384271;32;20074;-79
2023/07/09 02:17:15;;;;;;;0.28;0.28;;;20.50;91.40;;;;;;4381549;32;20066;-78
2023/07/09 02:19:41;;;;;;;0.32;0.30;;;20.40;91.50;;;;;;4382441;32;20089;-78
2023/07/09 02:22:07;;;;;;;0.37;0.37;;;20.40;91.90;;;;;;4382697;32;20102;-79
2023/07/09 02:24:33;;;;;;;0.47;0.47;;;20.30;92.10;;;;;;4379895;32;20153;-77
2023/07/09 02:27:01;;;;;;;1.27;1.10;;;20.40;92.20;;;;;;4381137;32;20082;-78
2023/07/09 02:29:28;;;;;;;0.30;0.30;;;20.20;92.50;;;;;;4381779;32;20148;-78
2023/07/09 02:31:56;;;;;;;0.45;0.45;;;20.10;92.90;;;;;;4380561;32;20141;-78
2023/07/09 02:34:25;;;;;;;0.40;0.40;;;20.10;93.10;;;;;;4380602;32;20114;-78
2023/07/09 02:36:51;;;;;;;0.50;0.50;;;19.90;93.40;;;;;;4380526;32;20166;-79
2023/07/09 02:39:17;;;;;;;0.50;0.45;;;19.70;94.10;;;;;;4381783;32;20647;-78
2023/07/09 02:41:42;;;;;;;0.40;0.40;;;19.60;94.20;;;;;;4380198;32;20132;-77
2023/07/09 02:44:09;;;;;;;0.30;0.30;;;19.60;94.40;;;;;;4382135;32;20106;-79
2023/07/09 02:46:35;;;;;;;0.40;0.40;;;19.60;94.70;;;;;;4377891;32;20066;-79
2023/07/09 02:49:03;;;;;;;0.80;0.40;;;19.70;94.70;;;;;;4380381;32;20150;-76
2023/07/09 02:51:28;;;;;;;0.40;0.40;;;19.50;95.00;;;;;;4380999;32;20087;-79
2023/07/09 02:53:55;;;;;;;0.37;0.37;;;19.40;95.50;;;;;;4382023;32;20093;-77
2023/07/09 02:56:21;;;;;;;2.00;0.60;;;19.40;95.60;;;;;;4377536;32;20062;-78
2023/07/09 02:58:47;;;;;;;0.50;0.50;;;19.40;96.00;;;;;;4379482;32;20079;-78
2023/07/09 03:01:12;;;;;;;0.62;0.37;;;19.40;96.20;;;;;;4381041;32;20083;-78
2023/07/09 03:03:38;;;;;;;0.47;0.47;;;19.40;96.40;;;;;;4382533;32;20086;-79
2023/07/09 03:06:04;;;;;;;0.50;0.50;;;19.30;96.50;;;;;;4381404;32;20098;-78
2023/07/09 03:08:30;;;;;;;0.32;0.32;;;19.30;96.70;;;;;;4381827;32;20571;-78
2023/07/09 03:10:55;;;;;;;0.50;0.50;;;19.40;96.70;;;;;;4382383;32;20176;-79
2023/07/09 03:13:21;;;;;;;0.95;0.40;;;19.40;96.90;;;;;;4382360;32;20070;-79
2023/07/09 03:15:55;;;;;;;0.43;0.43;;;19.20;97.60;;;;;;4380651;32;20602;-79
2023/07/09 03:18:21;;;;;;;0.50;0.50;;;18.90;98.90;;;;;;4378944;32;20089;-79
2023/07/09 03:20:46;;;;;;;0.80;0.50;;;18.80;99.60;;;;;;4379570;32;20086;-79
2023/07/09 03:23:12;;;;;;;0.40;0.40;;;18.70;99.90;;;;;;4380970;32;20122;-78
2023/07/09 03:25:41;;;;;;;4.22;0.68;;;18.70;99.90;;;;;;4378920;32;20069;-78
2023/07/09 03:28:06;;;;;;;1.05;0.90;;;18.70;99.90;;;;;;4379715;32;20070;-77
2023/07/09 03:30:32;;;;;;;0.47;0.47;;;18.80;99.90;;;;;;4380745;32;20828;-77
2023/07/09 03:32:58;;;;;;;0.40;0.40;;;18.70;99.90;;;;;;4381664;32;20078;-77
2023/07/09 03:35:23;;;;;;;3.97;1.30;;;18.80;99.90;;;;;;4378288;32;20089;-78
2023/07/09 03:37:49;;;;;;;0.30;0.30;;;18.90;99.90;;;;;;4378009;32;20563;-79
2023/07/09 03:40:21;;;;;;;0.28;0.28;;;19.00;99.90;;;;;;4381543;32;20066;-78
2023/07/09 03:42:47;;;;;;;0.77;0.75;;;19.10;99.90;;;;;;4379496;32;20460;-78
2023/07/09 03:45:12;;;;;;;0.30;0.30;;;19.10;99.90;;;;;;4380560;32;20090;-77
2023/07/09 03:47:38;;;;;;;0.35;0.35;;;19.20;99.90;;;;;;4380173;32;20090;-78
2023/07/09 03:50:06;;;;;;;0.60;0.43;;;19.20;99.90;;;;;;4379968;32;20547;-78
2023/07/09 03:52:32;;;;;;;0.57;0.57;;;19.30;99.90;;;;;;4379732;32;20062;-78
2023/07/09 03:54:57;;;;;;;0.35;0.35;;;19.40;99.90;;;;;;4379291;32;20538;-78
2023/07/09 03:57:23;;;;;;;1.35;0.75;;;19.50;99.90;;;;;;4382176;32;20085;-79
2023/07/09 03:59:48;;;;;;;0.35;0.35;;;19.50;99.90;;;;;;4380067;32;20094;-79
2023/07/09 04:02:13;;;;;;;0.30;0.30;;;19.50;99.90;;;;;;4380545;32;20090;-78
2023/07/09 04:04:39;;;;;;;0.30;0.30;;;19.50;99.90;;;;;;4379914;32;21234;-78
2023/07/09 04:07:04;;;;;;;0.55;0.43;;;19.50;99.90;;;;;;4378556;32;20079;-78
2023/07/09 04:09:30;;;;;;;2.12;0.40;;;19.40;99.90;;;;;;4376508;32;21402;-79
2023/07/09 04:11:55;;;;;;;0.52;0.32;;;19.50;99.90;;;;;;4381439;32;20086;-78
2023/07/09 04:14:21;;;;;;;1.48;0.43;;;19.60;99.90;;;;;;4378963;32;20058;-78
2023/07/09 04:16:46;;;;;;;0.40;0.40;;;19.60;99.90;;;;;;4380242;32;20066;-79
2023/07/09 04:19:12;;;;;;;0.93;0.62;;;19.70;99.90;;;;;;4379281;32;20517;-78
2023/07/09 04:21:37;;;;;;;0.52;0.52;;;19.80;99.90;;;;;;4378673;32;20106;-76
2023/07/09 04:24:03;;;;;;;3.53;0.70;;;19.80;99.90;;;;;;4380238;32;20082;-78
2023/07/09 04:26:28;;;;;;;0.50;0.50;;;19.90;99.90;;;;;;4379908;32;20122;-79
2023/07/09 04:28:54;;;;;;;0.47;0.47;;;20.00;99.90;;;;;;4380016;32;20470;-77
2023/07/09 04:31:19;;;;;;;0.30;0.30;;;20.00;99.90;;;;;;4381628;32;20086;-78
2023/07/09 04:33:45;;;;;;;0.50;0.50;;;20.10;99.90;;;;;;4380348;32;20127;-78
2023/07/09 04:36:12;;;;;;;0.57;0.52;;;20.10;99.70;;;;;;4378398;32;20118;-78
2023/07/09 04:38:38;;;;;;;1.35;0.90;;;20.20;99.40;;;;;;4377094;32;20161;-78
2023/07/09 04:41:03;;;;;;;0.50;0.50;;;20.20;99.70;;;;;;4378705;32;20818;-78
2023/07/09 04:43:29;;;;;;;0.30;0.30;;;20.30;99.90;;;;;;4380887;32;20141;-77
2023/07/09 04:45:55;;;;;;;0.50;0.50;;;20.30;99.90;;;;;;4380038;32;20566;-78
2023/07/09 04:48:20;;;;;;;0.50;0.50;;;20.40;99.40;;;;;;4380989;32;20098;-78
2023/07/09 04:50:50;;;;;;;0.73;0.52;;;20.40;98.90;;;;;;4378527;32;20078;-77
2023/07/09 04:53:15;;;;;;;2.67;0.93;;;20.40;98.50;;;;;;4378434;32;21336;-77
2023/07/09 04:55:41;;;;;;;0.62;0.45;;;20.50;98.70;;;;;;4377924;32;20102;-77
2023/07/09 04:58:06;;;;;;;0.40;0.40;;;20.60;97.90;;;;;;4379068;32;20065;-78
2023/07/09 05:00:32;;;;;;;0.90;0.77;;;20.60;98.00;;;;;;4378044;32;20149;-77
2023/07/09 05:02:57;;;;;;;0.20;0.20;;;20.70;99.10;;;;;;4379026;32;20090;-77
2023/07/09 05:05:23;;;;;;;5.30;1.25;;;20.70;98.50;;;;;;4377137;32;20114;-76
2023/07/09 05:07:50;;;;;;;0.30;0.30;;;20.80;98.80;;;;;;4379903;32;20071;-77
2023/07/09 05:10:16;;;;;;;0.40;0.40;;;20.80;99.10;;;;;;4379390;32;20098;-77
2023/07/09 05:12:51;;;;;;;0.30;0.30;;;20.90;98.70;;;;;;4381662;32;20078;-78
2023/07/09 05:15:18;;;;;;;0.50;0.50;;;21.00;97.00;;;;;;4379014;32;20079;-78
2023/07/09 05:17:44;;;;;;;0.40;0.40;;;21.00;96.70;;;;;;4380391;32;20062;-76
2023/07/09 05:20:10;;;;;;;0.35;0.35;;;21.10;95.80;;;;;;4381208;32;20137;-78
2023/07/09 05:22:35;;;;;;;0.47;0.47;;;21.10;96.80;;;;;;4380200;32;21370;-77
2023/07/09 05:25:01;;;;;;;1.87;0.80;;;21.20;96.50;;;;;;4375694;32;20070;-78
2023/07/09 05:27:26;;;;;;;0.45;0.45;;;21.20;95.70;;;;;;4375920;32;20078;-77
2023/07/09 05:29:51;;;;;;;0.40;0.40;;;21.30;95.70;;;;;;4373795;32;20086;-77
2023/07/09 05:32:18;;;;;;;0.55;0.50;;;21.40;95.20;;;;;;4377243;32;20074;-77
2023/07/09 05:34:44;;;;;;;0.30;0.30;;;21.50;95.50;;;;;;4376517;32;20133;-77
2023/07/09 05:37:10;;;;;;;0.28;0.28;;;21.50;95.20;;;;;;4375430;32;20550;-78
2023/07/09 05:39:35;;;;;;;1.08;0.70;;;21.60;96.00;;;;;;4378905;32;20093;-77
2023/07/09 05:42:01;;;;;;;0.65;0.65;;;21.60;95.10;;;;;;4378422;32;20102;-79
2023/07/09 05:44:26;;;;;;;0.68;0.68;;;21.70;94.60;;;;;;4377715;32;20097;-77
2023/07/09 05:46:51;;;;;;;0.32;0.32;;;21.80;94.10;;;;;;4381805;32;20086;-78
2023/07/09 05:49:17;;;;;;;0.40;0.40;;;21.80;94.10;;;;;;4381838;32;20066;-78
2023/07/09 05:51:43;;;;;;;0.30;0.30;;;21.90;94.30;;;;;;4383580;32;20085;-78
2023/07/09 05:54:09;;;;;;;0.30;0.28;;;22.00;93.90;;;;;;4385117;32;20071;-78
2023/07/09 05:56:35;;;;;;;0.52;0.30;;;22.10;94.10;;;;;;4382535;32;20130;-79
2023/07/09 05:59:00;;;;;;;0.40;0.40;;;22.20;93.80;;;;;;4380911;32;20526;-77
2023/07/09 06:01:27;;;;;;;1.75;0.98;;;22.20;93.80;;;;;;4391081;32;20798;-78
2023/07/09 06:03:53;;;;;;;0.55;0.55;;;22.20;93.30;;;;;;4381390;32;20562;-76
2023/07/09 06:06:18;;;;;;;0.50;0.50;;;22.20;93.50;;;;;;4381138;32;20098;-79
2023/07/09 06:08:44;;;;;;;0.55;0.40;;;22.30;93.00;;;;;;4383008;32;20074;-78
2023/07/09 06:11:09;;;;;;;0.30;0.30;;;22.30;93.90;;;;;;4381548;32;20199;-77
2023/07/09 06:13:35;;;;;;;0.30;0.30;;;22.50;92.90;;;;;;4382802;32;20069;-78
2023/07/09 06:16:01;;;;;;;0.50;0.50;;;22.50;92.80;;;;;;4381883;32;20094;-77
2023/07/09 06:18:29;;;;;;;0.30;0.30;;;22.60;92.70;;;;;;4379940;32;20232;-78
2023/07/09 06:20:57;;;;;;;0.40;0.40;;;22.60;93.10;;;;;;4381257;32;20098;-77
2023/07/09 06:23:22;;;;;;;0.25;0.25;;;22.70;92.80;;;;;;4380790;32;20090;-78
2023/07/09 06:25:48;;;;;;;0.37;0.37;;;22.80;92.90;;;;;;4382179;32;20116;-78
2023/07/09 06:28:15;;;;;;;0.30;0.30;;;22.80;93.10;;;;;;4379825;32;20507;-78
2023/07/09 06:30:41;;;;;;;0.50;0.40;;;22.90;93.10;;;;;;4377551;32;20109;-77
2023/07/09 06:33:06;;;;;;;0.50;0.50;;;22.90;92.80;;;;;;4381901;32;20105;-78
2023/07/09 06:35:32;;;;;;;1.17;0.68;;;23.00;92.90;;;;;;4383058;32;20078;-78
2023/07/09 06:37:57;;;;;;;0.30;0.30;;;23.10;93.10;;;;;;4371566;32;20074;-78
2023/07/09 06:40:24;;;;;;;0.37;0.37;;;23.20;93.30;;;;;;4379469;32;20114;-77
2023/07/09 06:42:50;;;;;;;2.28;0.30;;;23.20;92.60;;;;;;4380638;32;20189;-78
2023/07/09 06:45:15;;;;;;;0.60;0.40;;;23.30;92.60;;;;;;4381139;32;20509;-79
2023/07/09 06:47:41;;;;;;;0.37;0.37;;;23.40;92.10;;;;;;4380882;32;20186;-78
2023/07/09 06:50:07;;;;;;;1.65;0.40;;;23.40;92.80;;;;;;4381410;32;20086;-77
2023/07/09 06:52:32;;;;;;;0.30;0.30;;;23.50;92.00;;;;;;4383020;32;20090;-77
2023/07/09 06:54:58;;;;;;;1.85;0.40;;;23.60;92.40;;;;;;4380948;32;20106;-77
2023/07/09 06:57:23;;;;;;;1.00;0.85;;;23.70;91.90;;;;;;4381294;32;20099;-77
2023/07/09 06:59:49;;;;;;;0.20;0.20;;;23.70;91.60;;;;;;4380638;32;20149;-77
2023/07/09 07:02:14;;;;;;;1.95;0.55;;;23.80;91.90;;;;;;4382225;32;20069;-77
2023/07/09 07:04:41;;;;;;;0.57;0.37;;;23.90;92.10;;;;;;4381224;32;20078;-78
2023/07/09 07:07:07;;;;;;;0.50;0.50;;;24.00;91.50;;;;;;4380718;32;20071;-77
2023/07/09 07:09:32;;;;;;;0.80;0.73;;;24.20;90.90;;;;;;4379815;32;20099;-78
2023/07/09 07:11:58;;;;;;;0.30;0.22;;;24.20;90.80;;;;;;4382619;32;20094;-79
2023/07/09 07:14:23;;;;;;;0.40;0.40;;;24.20;91.00;;;;;;4379548;32;20081;-78
2023/07/09 07:16:49;;;;;;;0.32;0.32;;;24.30;91.20;;;;;;4378755;32;20142;-79
2023/07/09 07:19:15;;;;;;;0.47;0.47;;;24.30;91.10;;;;;;4380105;32;20569;-79
2023/07/09 07:21:40;;;;;;;0.57;0.55;;;24.50;91.20;;;;;;4381692;32;20135;-79
2023/07/09 07:24:07;;;;;;;0.30;0.30;;;24.60;90.40;;;;;;4382140;32;20090;-79
2023/07/09 07:26:32;;;;;;;0.47;0.47;;;24.80;90.00;;;;;;4380172;32;20129;-78
2023/07/09 07:28:58;;;;;;;0.43;0.25;;;24.90;90.10;;;;;;4381476;32;20458;-79
2023/07/09 07:31:23;;;;;;;0.40;0.40;;;25.00;90.20;;;;;;4381648;32;20182;-79
2023/07/09 07:33:50;;;;;;;0.32;0.32;;;25.10;89.80;;;;;;4379959;32;20086;-78
2023/07/09 07:36:15;;;;;;;0.30;0.30;;;25.30;88.70;;;;;;4378613;32;20086;-76
2023/07/09 07:38:41;;;;;;;6.32;1.12;;;25.20;88.60;;;;;;4379996;32;20438;-78
2023/07/09 07:41:08;;;;;;;0.73;0.73;;;25.40;88.70;;;;;;4381202;32;20094;-75
2023/07/09 07:43:33;;;;;;;0.43;0.43;;;25.40;88.50;;;;;;4381788;32;20098;-76
2023/07/09 07:45:58;;;;;;;0.50;0.50;;;25.60;88.30;;;;;;4378797;32;20070;-77
2023/07/09 07:48:24;;;;;;;0.30;0.30;;;25.70;88.30;;;;;;4382665;32;20069;-78
2023/07/09 07:50:50;;;;;;;0.40;0.40;;;25.90;87.60;;;;;;4378336;32;20070;-76
2023/07/09 07:53:16;;;;;;;0.30;0.30;;;26.00;87.10;;;;;;4380314;32;20090;-75
2023/07/09 07:55:42;;;;;;;1.30;0.62;;;26.10;87.90;;;;;;4381859;32;20142;-77
2023/07/09 07:58:10;;;;;;;0.30;0.30;;;26.30;87.70;;;;;;4380108;32;20201;-76
2023/07/09 08:00:36;;;;;;;0.37;0.37;;;26.30;86.20;;;;;;4378704;32;20493;-78
2023/07/09 08:03:02;;;;;;;0.70;0.65;;;26.40;86.40;;;;;;4379385;32;20069;-80
2023/07/09 08:05:28;;;;;;;1.42;0.52;;;26.50;85.90;;;;;;4380248;32;20117;-77
2023/07/09 08:07:54;;;;;;;0.43;0.43;;;26.60;86.10;;;;;;4380173;32;20518;-77
2023/07/09 08:10:19;;;;;;;2.10;0.25;;;26.70;86.70;;;;;;4380737;32;20650;-77
2023/07/09 08:12:45;;;;;;;0.62;0.62;;;26.80;85.90;;;;;;4381524;32;20094;-78
2023/07/09 08:15:11;;;;;;;0.25;0.25;;;27.00;86.50;;;;;;4380622;32;20541;-78
2023/07/09 08:17:36;;;;;;;0.40;0.40;;;27.10;85.80;;;;;;4380415;32;20474;-78
2023/07/09 08:20:02;;;;;;;0.28;0.28;;;27.20;85.50;;;;;;4381178;32;20410;-77
2023/07/09 08:22:27;;;;;;;1.73;0.68;;;27.40;86.00;;;;;;4380487;32;20102;-78
2023/07/09 08:24:53;;;;;;;0.30;0.30;;;27.50;83.80;;;;;;4381590;32;20136;-77
2023/07/09 08:27:19;;;;;;;1.33;0.60;;;27.60;83.60;;;;;;4376649;32;20439;-78
2023/07/09 08:29:46;;;;;;;0.30;0.30;;;27.70;82.40;;;;;;4377767;32;20117;-77
2023/07/09 08:32:13;;;;;;;0.52;0.47;;;27.80;82.70;;;;;;4378478;32;20094;-78
2023/07/09 08:34:40;;;;;;;0.65;0.40;;;27.90;82.90;;;;;;4378860;32;20074;-77
2023/07/09 08:37:06;;;;;;;0.25;0.25;;;27.90;80.80;;;;;;4378693;32;20098;-78
2023/07/09 08:39:32;;;;;;;0.30;0.30;;;28.00;80.60;;;;;;4376452;32;20073;-76
2023/07/09 08:42:09;;;;;;;0.20;0.20;;;28.10;80.90;;;;;;4380017;32;20082;-77
2023/07/09 08:44:56;;;;;;;0.30;0.30;;;28.20;80.30;;;;;;4379113;32;20106;-77
2023/07/09 08:47:25;;;;;;;0.45;0.30;;;28.20;78.60;;;;;;4376827;32;20134;-76
2023/07/09 08:50:00;;;;;;;1.45;0.93;;;28.30;79.00;;;;;;4380979;32;20093;-79
2023/07/09 08:52:31;;;;;;;0.43;0.43;;;28.40;78.70;;;;;;4378007;32;20399;-78
2023/07/09 08:55:01;;;;;;;0.30;0.30;;;28.50;77.90;;;;;;4378687;32;20130;-77
2023/07/09 08:57:31;;;;;;;0.20;0.20;;;28.50;76.80;;;;;;4377589;32;20600;-77
2023/07/09 09:00:07;;;;;;;3.78;0.40;;;28.60;76.60;;;;;;4379129;32;20490;-77
2023/07/09 09:02:38;;;;;;;1.15;0.60;;;28.60;75.60;;;;;;4378225;32;20519;-76
2023/07/09 09:05:05;;;;;;;1.00;0.70;;;28.70;76.40;;;;;;4380598;32;20433;-76
2023/07/09 09:07:39;;;;;;;0.45;0.45;;;28.70;75.10;;;;;;4377317;32;20539;-78
2023/07/09 09:10:05;;;;;;;0.35;0.30;;;28.80;76.70;;;;;;4377036;32;20098;-77
2023/07/09 09:12:38;;;;;;;0.30;0.30;;;28.90;75.50;;;;;;4378820;32;20103;-78
2023/07/09 09:15:11;;;;;;;0.62;0.20;;;29.00;71.80;;;;;;4378791;32;20568;-77
2023/07/09 09:17:39;;;;;;;0.30;0.20;;;29.00;73.00;;;;;;4378626;32;20384;-78
2023/07/09 09:20:11;;;;;;;1.33;0.93;;;29.10;72.50;;;;;;4381029;32;20420;-77
2023/07/09 09:22:48;;;;;;;0.10;0.10;;;29.20;73.70;;;;;;4380009;32;20093;-77
2023/07/09 09:25:33;;;;;;;3.58;0.90;;;29.30;72.50;;;;;;4378438;32;20066;-77
2023/07/09 09:28:00;;;;;;;0.85;0.57;;;29.40;74.30;;;;;;4377668;32;20118;-79
2023/07/09 09:30:27;;;;;;;0.28;0.28;;;29.40;71.50;;;;;;4377402;32;20241;-77
2023/07/09 09:32:59;;;;;;;0.20;0.20;;;29.40;70.30;;;;;;4379493;32;20117;-78
2023/07/09 09:35:28;;;;;;;0.20;0.20;;;29.30;70.50;;;;;;4379364;32;20071;-78
2023/07/09 09:37:57;;;;;;;0.15;0.15;;;29.40;72.20;;;;;;4378213;32;20066;-78
2023/07/09 09:40:24;;;;;;;0.55;0.30;;;29.20;68.50;;;;;;4378925;32;20121;-79
2023/07/09 09:42:51;;;;;;;0.20;0.20;;;29.30;70.50;;;;;;4378870;32;20161;-78
2023/07/09 09:45:20;;;;;;;0.10;0.10;;;29.50;71.80;;;;;;4379218;32;20087;-78
2023/07/09 09:47:47;;;;;;;0.28;0.28;;;29.80;70.70;;;;;;4379329;32;20102;-80
2023/07/09 09:50:18;;;;;;;0.65;0.65;;;29.90;70.30;;;;;;4378459;32;20059;-78
2023/07/09 09:52:46;;;;;;;7.37;0.62;;;30.00;69.40;;;;;;4378420;32;20087;-78
2023/07/09 09:55:19;;;;;;;0.20;0.20;;;30.20;69.90;;;;;;4378975;32;20102;-77
2023/07/09 09:57:53;;;;;;;1.85;0.77;;;30.30;66.50;;;;;;4375671;32;20082;-78
2023/07/09 10:00:24;;;;;;;0.08;0.08;;;30.60;66.20;;;;;;4377413;32;20098;-77
2023/07/09 10:02:50;;;;;;;1.73;0.55;;;30.50;65.80;;;;;;4378968;32;20106;-77
2023/07/09 10:05:19;;;;;;;0.40;0.40;;;30.70;64.30;;;;;;4376992;32;20530;-79
2023/07/09 10:08:03;;;;;;;2.30;0.52;;;30.80;64.90;;;;;;4378711;32;20140;-78
2023/07/09 10:10:32;;;;;;;0.22;0.22;;;31.00;65.70;;;;;;4376975;32;20066;-77
2023/07/09 10:13:10;;;;;;;0.33;0.20;;;31.00;66.10;;;;;;4376664;32;20086;-77
2023/07/09 10:15:47;;;;;;;0.77;0.30;;;31.30;65.80;;;;;;4378209;32;21429;-78
2023/07/09 10:18:28;;;;;;;0.15;0.15;;;31.40;62.70;;;;;;4379288;32;20075;-78
2023/07/09 10:21:05;;;;;;;0.52;0.30;;;31.40;62.20;;;;;;4381315;32;20950;-79
2023/07/09 10:23:47;;;;;;;0.28;0.28;;;31.20;63.10;;;;;;4381419;32;20148;-78
2023/07/09 10:26:41;;;;;;;0.68;0.60;;;31.50;63.50;;;;;;4382041;32;20566;-77
2023/07/09 10:29:40;;;;;;;0.17;0.17;;;31.60;64.00;;;;;;4381629;32;20082;-78
2023/07/09 10:32:32;;;;;;;0.22;0.22;;;31.60;63.60;;;;;;4380070;32;20083;-80
2023/07/09 10:35:15;;;;;;;1.00;0.65;;;32.00;64.90;;;;;;4379170;32;20087;-79
2023/07/09 10:38:05;;;;;;;0.13;0.13;;;32.20;63.70;;;;;;4382334;32;20561;-77
2023/07/09 10:40:36;;;;;;;0.32;0.32;;;32.20;65.70;;;;;;4380095;32;20082;-77
2023/07/09 10:43:04;;;;;;;0.20;0.17;;;32.10;62.60;;;;;;4381041;32;20062;-77
2023/07/09 10:45:40;;;;;;;0.08;0.08;;;32.20;65.40;;;;;;4381435;32;20726;-78
2023/07/09 10:48:16;;;;;;;0.30;0.30;;;32.30;63.80;;;;;;4381560;32;20078;-77
2023/07/09 10:50:47;;;;;;;0.35;0.30;;;32.60;64.50;;;;;;4381026;32;20628;-77
2023/07/09 10:53:21;;;;;;;0.50;0.50;;;33.00;62.10;;;;;;4379046;32;20117;-78
2023/07/09 10:55:53;;;;;;;0.10;0.10;;;33.10;61.50;;;;;;4380456;32;20152;-77
2023/07/09 10:58:30;;;;;;;0.43;0.43;;;33.30;62.80;;;;;;4377436;32;20511;-77
2023/07/09 11:00:57;;;;;;;0.40;0.40;;;33.40;60.50;;;;;;4379819;32;20078;-78
2023/07/09 11:03:48;;;;;;;0.30;0.30;;;33.40;59.80;;;;;;4380798;32;20227;-78
2023/07/09 11:06:22;;;;;;;0.10;0.10;;;33.50;59.60;;;;;;4378541;32;20102;-77
2023/07/09 11:08:51;;;;;;;0.20;0.20;;;33.60;60.20;;;;;;4380983;32;20070;-78
2023/07/09 11:11:30;;;;;;;2.05;0.50;;;33.80;60.50;;;;;;4379693;32;20214;-78
2023/07/09 11:14:05;;;;;;;0.13;0.13;;;34.10;59.00;;;;;;4380676;32;20121;-77
2023/07/09 11:16:36;;;;;;;0.55;0.55;;;34.40;60.50;;;;;;4379357;32;20103;-78
2023/07/09 11:19:06;;;;;;;0.68;0.47;;;34.20;57.70;;;;;;4380688;32;20584;-77
2023/07/09 11:21:32;;;;;;;0.57;0.40;;;34.10;58.90;;;;;;4378341;32;20851;-78
2023/07/09 11:24:00;;;;;;;0.30;0.30;;;34.30;58.90;;;;;;4378629;32;20078;-78
2023/07/09 11:26:35;;;;;;;0.25;0.25;;;34.40;59.90;;;;;;4379718;32;20206;-77
2023/07/09 11:29:18;;;;;;;0.37;0.30;;;34.40;58.90;;;;;;4379706;32;20062;-77
2023/07/09 11:31:47;;;;;;;1.65;0.52;;;34.50;59.20;;;;;;4378641;32;20106;-78
2023/07/09 11:34:17;;;;;;;0.95;0.50;;;34.70;57.90;;;;;;4378535;32;20062;-79
2023/07/09 11:36:56;;;;;;;33.28;1.02;;;34.80;57.50;;;;;;4380964;32;20082;-79
2023/07/09 11:39:28;;;;;;;16.10;1.17;;;34.90;56.90;;;;;;4377670;32;20066;-78
2023/07/09 11:41:54;;;;;;;0.20;0.20;;;34.80;56.00;;;;;;4378850;32;20075;-77
2023/07/09 11:44:24;;;;;;;0.65;0.40;;;35.10;56.80;;;;;;4376505;32;20086;-76
2023/07/09 11:46:58;;;;;;;0.32;0.28;;;35.20;56.10;;;;;;4373282;32;138225;-78
2023/07/09 11:49:30;;;;;;;3.87;0.82;;;35.20;56.20;;;;;;4379403;32;20423;-77
2023/07/09 11:52:02;;;;;;;12.45;1.00;;;35.10;56.90;;;;;;4380368;32;20062;-77
2023/07/09 11:54:27;;;;;;;0.20;0.20;;;35.40;56.80;;;;;;4378133;32;20078;-78
2023/07/09 11:56:58;;;;;;;0.47;0.40;;;35.60;56.10;;;;;;4380045;32;20087;-78
2023/07/09 11:59:23;;;;;;;0.98;0.32;;;35.60;55.50;;;;;;4378249;32;20160;-78
2023/07/09 12:01:54;;;;;;;0.50;0.40;;;35.50;55.60;;;;;;4377037;32;20086;-79
2023/07/09 12:04:22;;;;;;;0.40;0.40;;;35.70;55.90;;;;;;4378032;32;20123;-78
2023/07/09 12:06:48;;;;;;;0.40;0.40;;;36.00;55.00;;;;;;4377906;32;20511;-78
2023/07/09 12:09:17;;;;;;;4.82;0.65;;;36.20;54.30;;;;;;4376009;32;20078;-78
2023/07/09 12:11:48;;;;;;;0.30;0.30;;;36.50;55.00;;;;;;4377799;32;20146;-76
2023/07/09 12:14:17;;;;;;;0.40;0.40;;;36.70;54.00;;;;;;4376790;32;20074;-78
2023/07/09 12:16:46;;;;;;;0.30;0.30;;;36.70;55.20;;;;;;4379097;32;20050;-76
2023/07/09 12:19:13;;;;;;;0.10;0.10;;;36.60;54.90;;;;;;4380044;32;20093;-78
2023/07/09 12:21:42;;;;;;;0.68;0.62;;;36.70;54.50;;;;;;4378323;32;20086;-78
2023/07/09 12:24:22;;;;;;;0.30;0.30;;;36.70;53.70;;;;;;4378346;32;20095;-78
2023/07/09 12:26:49;;;;;;;0.28;0.28;;;36.80;54.20;;;;;;4376585;32;20105;-78
2023/07/09 12:29:15;;;;;;;0.13;0.13;;;37.00;53.20;;;;;;4377124;32;20091;-76
2023/07/09 12:31:40;;;;;;;0.82;0.40;;;36.90;53.50;;;;;;4378154;32;20062;-77
2023/07/09 12:34:11;;;;;;;0.20;0.20;;;37.40;52.10;;;;;;4378865;32;20069;-77
2023/07/09 12:36:40;;;;;;;0.28;0.28;;;37.90;50.50;;;;;;4377884;32;20086;-77
2023/07/09 12:39:09;;;;;;;0.25;0.25;;;38.00;51.00;;;;;;4379325;32;20102;-77
2023/07/09 12:41:40;;;;;;;0.37;0.35;;;37.70;50.80;;;;;;4377924;32;20079;-78
2023/07/09 12:44:15;;;;;;;0.88;0.60;;;37.60;51.40;;;;;;4379421;32;20121;-77
2023/07/09 12:46:40;;;;;;;0.55;0.40;;;37.70;52.80;;;;;;4377914;32;21197;-77
2023/07/09 12:49:06;;;;;;;0.40;0.40;;;37.70;51.10;;;;;;4377282;32;20082;-77
2023/07/09 12:51:31;;;;;;;0.30;0.30;;;37.90;51.90;;;;;;4379812;32;20197;-77